Time;durP1;ratioP1;P1;durP2;ratioP2;P2;SDS_P1;SDS_P2;PMS_P1;PMS_P2;Temp;Humidity;BMP_temperature;BMP_pressure;BME280_temperature;BME280_humidity;BME280_pressure;Samples;Min_cycle;Max_cycle;Signal;HPM_P1;HPM_P2
2023/05/17 05:45:02;;;;;;;;;3.00;2.25;;;;;17.08;54.30;102324.63;5038162;27;45884;-77
2023/05/17 05:47:28;;;;;;;;;4.00;2.75;;;;;17.22;54.39;102323.00;5053472;27;45722;-79
2023/05/17 05:49:53;;;;;;;;;4.50;2.00;;;;;17.40;53.97;102321.06;5057283;27;45506;-81
2023/05/17 05:52:18;;;;;;;;;4.00;4.00;;;;;17.61;53.98;102323.44;5044664;28;45931;-82
2023/05/17 05:54:44;;;;;;;;;3.00;3.00;;;;;17.80;53.57;102328.59;5053687;27;45780;-80
2023/05/17 05:57:10;;;;;;;;;4.75;4.00;;;;;17.96;52.81;102327.66;5047830;27;45456;-79
2023/05/17 05:59:35;;;;;;;;;3.25;3.25;;;;;18.16;53.33;102335.41;5057486;27;45419;-78
2023/05/17 06:02:00;;;;;;;;;4.00;3.75;;;;;18.32;52.48;102336.28;5059768;28;45471;-79
2023/05/17 06:04:27;;;;;;;;;5.25;4.50;;;;;18.44;52.36;102332.84;5062221;28;46203;-79
2023/05/17 06:06:53;;;;;;;;;3.33;2.33;;;;;18.55;51.88;102333.03;5063908;27;45459;-80
2023/05/17 06:09:18;;;;;;;;;5.33;5.00;;;;;18.73;51.71;102340.91;5059015;27;45397;-81
2023/05/17 06:11:43;;;;;;;;;7.33;4.00;;;;;18.83;51.65;102346.56;5071806;27;45455;-80
2023/05/17 06:14:10;;;;;;;;;4.00;2.67;;;;;18.93;51.21;102334.22;5059890;28;54699;-80
2023/05/17 06:16:35;;;;;;;;;4.25;4.25;;;;;19.03;51.32;102353.34;5064454;27;45662;-81
2023/05/17 06:19:00;;;;;;;;;4.67;4.67;;;;;19.11;50.76;102349.31;5055179;28;45491;-81
2023/05/17 06:21:25;;;;;;;;;4.67;2.33;;;;;19.20;51.04;102354.09;5055479;27;50517;-81
2023/05/17 06:23:51;;;;;;;;;5.00;4.00;;;;;19.23;50.38;102348.53;5060997;28;45587;-81
2023/05/17 06:26:17;;;;;;;;;5.75;3.25;;;;;19.28;50.47;102341.00;5058648;28;45503;-80
2023/05/17 06:28:42;;;;;;;;;4.00;2.67;;;;;19.33;50.47;102340.72;5037615;27;45663;-80
2023/05/17 06:31:07;;;;;;;;;6.67;4.33;;;;;19.44;50.11;102353.44;5057769;28;45534;-80
2023/05/17 06:33:32;;;;;;;;;4.00;3.67;;;;;19.48;50.40;102360.34;5055515;27;45991;-82
2023/05/17 06:35:58;;;;;;;;;7.00;3.33;;;;;19.51;50.39;102364.69;5058405;28;51861;-74
2023/05/17 06:38:24;;;;;;;;;3.67;3.67;;;;;19.52;50.68;102366.41;5060142;28;45608;-73
2023/05/17 06:40:57;;;;;;;;;3.00;3.00;;;;;19.56;50.43;102363.41;5064312;28;45653;-71
2023/05/17 06:43:23;;;;;;;;;4.33;4.33;;;;;19.58;50.26;102376.78;5058995;28;46291;-72
2023/05/17 06:45:48;;;;;;;;;3.00;3.00;;;;;19.62;50.50;102364.84;5064086;28;45553;-72
2023/05/17 06:48:14;;;;;;;;;4.67;4.33;;;;;19.64;49.95;102368.28;5064157;28;45946;-72
2023/05/17 06:50:39;;;;;;;;;5.00;2.00;;;;;19.68;49.81;102377.00;5062797;28;45722;-72
2023/05/17 06:53:05;;;;;;;;;4.33;3.33;;;;;19.64;49.86;102370.09;5061846;27;46343;-72
2023/05/17 06:55:30;;;;;;;;;4.33;3.33;;;;;19.71;49.73;102374.97;5047469;27;45479;-71
2023/05/17 06:57:55;;;;;;;;;4.00;4.00;;;;;19.64;50.06;102362.03;5043969;28;45523;-72
2023/05/17 07:00:21;;;;;;;;;3.33;3.00;;;;;19.73;50.04;102377.56;5042812;28;45453;-72
2023/05/17 07:02:47;;;;;;;;;3.67;3.00;;;;;19.72;49.84;102371.34;5053926;27;46753;-71
2023/05/17 07:05:12;;;;;;;;;4.00;4.00;;;;;19.77;49.27;102389.88;5050109;27;45942;-72
2023/05/17 07:07:37;;;;;;;;;1.00;1.00;;;;;19.79;49.79;102387.06;5040286;28;45437;-73
2023/05/17 07:10:04;;;;;;;;;2.00;2.00;;;;;19.81;49.61;102386.00;5039625;27;45857;-74
2023/05/17 07:12:29;;;;;;;;;3.33;3.33;;;;;19.81;49.68;102387.81;5045229;27;46165;-75
2023/05/17 07:14:55;;;;;;;;;4.00;3.00;;;;;19.84;49.47;102391.19;5040121;28;45483;-75
2023/05/17 07:17:20;;;;;;;;;2.33;2.33;;;;;19.84;49.70;102398.41;5047748;27;45867;-75
2023/05/17 07:19:49;;;;;;;;;3.67;3.67;;;;;19.85;49.11;102398.31;5042646;28;50732;-72
2023/05/17 07:22:15;;;;;;;;;2.00;2.00;;;;;19.90;49.50;102405.22;5038037;27;46338;-71
2023/05/17 07:24:40;;;;;;;;;4.00;3.00;;;;;19.86;49.46;102394.63;5035330;28;45376;-72
2023/05/17 07:27:05;;;;;;;;;2.33;2.00;;;;;19.91;48.79;102402.44;5042741;28;47493;-73
2023/05/17 07:29:30;;;;;;;;;4.00;4.00;;;;;19.93;49.28;102407.69;5044852;27;45497;-72
2023/05/17 07:31:56;;;;;;;;;1.00;1.00;;;;;19.94;49.43;102406.75;5042108;28;45542;-72
2023/05/17 07:34:21;;;;;;;;;1.00;1.00;;;;;19.91;49.49;102397.03;5038903;27;55555;-72
2023/05/17 07:36:46;;;;;;;;;5.00;3.00;;;;;19.96;49.07;102410.19;5041940;27;45498;-72
2023/05/17 07:39:12;;;;;;;;;2.00;2.00;;;;;19.97;49.11;102411.91;5039668;27;54864;-74
2023/05/17 07:41:37;;;;;;;;;2.00;2.00;;;;;19.95;48.82;102413.84;5044952;28;46236;-73
2023/05/17 07:44:02;;;;;;;;;4.33;4.33;;;;;19.97;49.30;102407.41;5047724;28;45450;-73
2023/05/17 07:46:28;;;;;;;;;4.00;3.00;;;;;20.03;49.45;102418.75;5048569;27;45342;-73
2023/05/17 07:48:53;;;;;;;;;3.00;3.00;;;;;20.03;49.11;102416.94;5046741;28;45442;-73
2023/05/17 07:51:18;;;;;;;;;4.33;3.00;;;;;20.03;49.02;102411.53;5046673;28;45552;-74
2023/05/17 07:53:44;;;;;;;;;5.00;3.00;;;;;20.03;49.80;102411.53;5045834;27;55358;-73
2023/05/17 07:56:09;;;;;;;;;3.67;3.67;;;;;20.04;49.65;102409.69;5044670;28;45437;-73
2023/05/17 07:58:35;;;;;;;;;5.00;4.00;;;;;20.04;49.42;102407.88;5047813;28;51228;-74
2023/05/17 08:01:00;;;;;;;;;3.33;1.67;;;;;20.04;49.20;102413.25;5037001;27;45972;-74
2023/05/17 08:03:27;;;;;;;;;4.67;2.33;;;;;20.08;49.21;102404.00;5027356;27;45645;-75
2023/05/17 08:05:52;;;;;;;;;5.67;4.00;;;;;20.08;49.07;102406.69;5049644;28;45590;-75
2023/05/17 08:08:19;;;;;;;;;3.67;3.67;;;;;20.11;49.15;102401.06;5046252;28;45870;-75
2023/05/17 08:10:45;;;;;;;;;3.33;2.67;;;;;20.15;49.72;102404.41;5049759;27;45961;-75
2023/05/17 08:13:10;;;;;;;;;4.00;2.00;;;;;20.14;49.88;102400.00;5040018;28;45498;-74
2023/05/17 08:15:36;;;;;;;;;4.67;3.33;;;;;20.20;49.61;102406.81;5044785;28;45479;-74
2023/05/17 08:18:01;;;;;;;;;4.00;2.00;;;;;20.19;49.91;102407.78;5041940;28;45458;-74
2023/05/17 08:20:26;;;;;;;;;2.00;2.00;;;;;20.23;49.96;102403.91;5043755;27;46137;-74
2023/05/17 08:22:51;;;;;;;;;4.00;3.00;;;;;20.25;50.02;102404.66;5045195;27;45360;-74
2023/05/17 08:25:18;;;;;;;;;2.00;2.00;;;;;20.26;49.39;102399.16;5045856;28;45793;-74
2023/05/17 08:27:44;;;;;;;;;3.67;2.00;;;;;20.30;49.50;102393.53;5049407;27;45452;-76
2023/05/17 08:30:10;;;;;;;;;2.00;2.00;;;;;20.32;49.38;102402.41;5046282;27;45893;-75
2023/05/17 08:32:36;;;;;;;;;4.33;3.33;;;;;20.28;49.65;102388.28;5042235;27;45391;-75
2023/05/17 08:35:01;;;;;;;;;3.00;2.00;;;;;20.36;49.60;102401.22;5043654;28;46682;-74
2023/05/17 08:37:26;;;;;;;;;2.33;2.33;;;;;20.37;49.88;102394.84;5045950;28;45762;-75
2023/05/17 08:39:51;;;;;;;;;4.00;2.00;;;;;20.41;49.59;102396.38;5048289;28;45704;-74
2023/05/17 08:42:21;;;;;;;;;3.00;3.00;;;;;20.43;49.57;102399.81;5049334;28;45469;-74
2023/05/17 08:44:46;;;;;;;;;3.00;3.00;;;;;20.46;49.82;102393.34;5038458;28;45569;-72
2023/05/17 08:47:24;;;;;;;;;3.00;2.33;;;;;20.47;49.81;102397.78;5047731;28;45459;-73
2023/05/17 08:49:53;;;;;;;;;3.00;3.00;;;;;20.48;49.91;102399.50;5047683;28;47397;-73
2023/05/17 08:52:20;;;;;;;;;4.00;2.67;;;;;20.50;50.17;102402.94;5028205;28;45640;-73
2023/05/17 08:54:46;;;;;;;;;2.00;2.00;;;;;20.49;50.27;102402.09;5048466;28;45624;-73
2023/05/17 08:57:13;;;;;;;;;2.67;2.67;;;;;20.52;49.63;102396.47;5048127;28;45525;-72
2023/05/17 08:59:38;;;;;;;;;3.00;2.00;;;;;20.55;50.25;102398.09;5021039;28;46140;-73
2023/05/17 09:02:04;;;;;;;;;4.00;1.33;;;;;20.58;49.51;102391.59;5048304;28;45634;-73
2023/05/17 09:04:30;;;;;;;;;2.67;2.67;;;;;20.56;49.50;102380.06;5046555;27;45597;-72
2023/05/17 09:06:56;;;;;;;;;3.67;3.67;;;;;20.61;49.99;102391.41;5041962;28;45445;-72
2023/05/17 09:09:22;;;;;;;;;3.33;3.33;;;;;20.62;49.77;102391.31;5031140;27;46951;-74
2023/05/17 09:11:48;;;;;;;;;2.00;2.00;;;;;20.57;50.12;102368.31;5049108;28;45648;-73
2023/05/17 09:14:16;;;;;;;;;2.33;2.33;;;;;20.67;49.65;102382.88;5049063;28;45562;-73
2023/05/17 09:16:42;;;;;;;;;6.33;2.33;;;;;20.69;49.72;102390.84;5044293;28;45610;-73
2023/05/17 09:19:13;;;;;;;;;2.00;2.00;;;;;20.69;50.12;102391.72;5041332;28;46193;-71
2023/05/17 09:21:39;;;;;;;;;3.00;1.67;;;;;20.72;49.74;102385.25;5048577;28;45644;-74
2023/05/17 09:24:05;;;;;;;;;2.33;2.33;;;;;20.77;49.77;102391.19;5040666;28;45677;-74
2023/05/17 09:26:38;;;;;;;;;2.00;2.00;;;;;20.79;49.94;102386.53;5046489;27;45535;-73
2023/05/17 09:29:07;;;;;;;;;3.00;3.00;;;;;20.77;49.97;102386.63;5044964;28;46043;-73
2023/05/17 09:31:33;;;;;;;;;2.67;2.67;;;;;20.81;49.99;102384.59;5046990;28;45744;-73
2023/05/17 09:33:58;;;;;;;;;4.00;2.33;;;;;20.83;49.97;102393.44;5044794;27;45524;-73
2023/05/17 09:36:23;;;;;;;;;4.00;2.67;;;;;20.82;49.66;102389.00;5047894;27;45475;-73
2023/05/17 09:38:53;;;;;;;;;2.00;2.00;;;;;20.84;49.59;102395.16;5048348;28;58740;-71
2023/05/17 09:41:18;;;;;;;;;2.00;2.00;;;;;20.88;49.83;102393.97;5030032;28;45473;-72
2023/05/17 09:43:44;;;;;;;;;2.00;2.00;;;;;20.90;49.36;102392.06;5030228;27;45619;-72
2023/05/17 09:46:09;;;;;;;;;3.33;3.33;;;;;20.87;50.11;102381.47;5046202;28;45714;-70
2023/05/17 09:48:37;;;;;;;;;4.33;2.33;;;;;20.88;49.90;102377.78;5041049;28;45523;-70
2023/05/17 09:51:04;;;;;;;;;2.00;2.00;;;;;20.92;49.71;102381.13;5044552;28;45883;-70
2023/05/17 09:53:38;;;;;;;;;2.33;2.33;;;;;20.94;49.74;102384.59;5048744;28;45511;-70
2023/05/17 09:56:05;;;;;;;;;3.33;2.33;;;;;20.93;49.12;102380.16;5047758;27;45760;-70
2023/05/17 09:58:33;;;;;;;;;3.00;2.00;;;;;20.99;49.70;102376.16;5045002;27;46005;-70
2023/05/17 10:01:00;;;;;;;;;3.33;3.00;;;;;21.01;49.91;102385.84;5045692;28;45503;-70
2023/05/17 10:03:29;;;;;;;;;2.00;2.00;;;;;21.03;49.58;102391.16;5028738;27;45572;-71
2023/05/17 10:05:56;;;;;;;;;2.00;2.00;;;;;21.05;49.36;102402.72;5047628;28;45611;-70
2023/05/17 10:08:24;;;;;;;;;1.67;1.67;;;;;21.05;49.88;102392.75;5028761;28;47078;-71
2023/05/17 10:10:53;;;;;;;;;6.00;2.00;;;;;21.07;49.72;102395.34;5048556;28;45888;-70
2023/05/17 10:13:23;;;;;;;;;2.00;2.00;;;;;21.09;49.70;102389.84;5047016;28;45441;-70
2023/05/17 10:15:50;;;;;;;;;1.67;1.67;;;;;21.11;49.81;102382.47;5047232;28;45512;-70
2023/05/17 10:18:16;;;;;;;;;4.00;3.00;;;;;21.12;49.74;102382.38;5026116;27;48054;-70
2023/05/17 10:20:42;;;;;;;;;2.00;2.00;;;;;21.15;50.04;102390.25;5046952;28;45583;-70
2023/05/17 10:23:10;;;;;;;;;4.00;3.00;;;;;21.13;49.61;102389.50;5045247;27;46487;-71
2023/05/17 10:25:36;;;;;;;;;1.00;1.00;;;;;21.18;50.09;102375.69;5043887;27;45460;-71
2023/05/17 10:28:05;;;;;;;;;2.33;2.33;;;;;21.21;50.03;102374.59;5045845;28;45523;-70
2023/05/17 10:30:32;;;;;;;;;7.00;4.00;;;;;21.19;48.87;102366.59;5048931;28;45588;-70
2023/05/17 10:32:59;;;;;;;;;4.33;3.00;;;;;21.14;48.10;102369.63;5032834;27;45488;-71
2023/05/17 10:35:32;;;;;;;;;6.00;4.00;;;;;21.18;47.45;102364.88;5048937;28;45513;-70
2023/05/17 10:37:57;;;;;;;;;4.33;3.33;;;;;21.16;47.28;102366.81;5021917;28;46410;-73
2023/05/17 10:40:23;;;;;;;;;2.00;2.00;;;;;21.17;48.10;102377.50;5047507;28;55159;-74
2023/05/17 10:42:51;;;;;;;;;3.00;3.00;;;;;21.18;47.52;102376.50;5047360;27;47201;-73
2023/05/17 11:35:38;;;;;;;;;3.00;3.00;;;;;18.76;49.95;102332.63;5105950;27;45906;-74
2023/05/17 11:38:41;;;;;;;;;4.33;3.00;;;;;18.91;49.73;102328.09;5099174;27;45434;-75
2023/05/17 11:41:18;;;;;;;;;6.00;4.00;;;;;19.07;49.59;102327.13;5064427;28;45579;-74
2023/05/17 11:43:47;;;;;;;;;5.00;4.33;;;;;19.18;49.50;102319.19;5067060;28;45432;-75
2023/05/17 11:46:21;;;;;;;;;6.00;4.33;;;;;19.39;49.44;102326.84;5066169;28;46244;-73
2023/05/17 11:48:49;;;;;;;;;3.67;3.67;;;;;19.53;48.74;102325.91;5059910;27;45581;-75
2023/05/17 11:51:15;;;;;;;;;4.00;4.00;;;;;19.65;48.87;102318.81;5050392;28;45990;-76
2023/05/17 11:53:42;;;;;;;;;5.33;4.33;;;;;19.78;48.83;102316.16;5065807;28;46086;-74
2023/05/17 11:56:08;;;;;;;;;5.00;4.67;;;;;19.86;48.16;102313.81;5061333;28;45747;-72
2023/05/17 11:58:34;;;;;;;;;4.67;3.67;;;;;19.95;48.53;102303.38;5061409;28;45980;-75
2023/05/17 12:00:59;;;;;;;;;3.67;3.67;;;;;20.05;47.89;102307.16;5064374;28;45553;-75
2023/05/17 12:03:28;;;;;;;;;3.33;3.33;;;;;20.14;47.71;102295.75;5065331;28;45820;-74
2023/05/17 12:06:03;;;;;;;;;4.00;2.67;;;;;20.24;47.71;102303.19;5045509;28;46036;-73
2023/05/17 12:08:31;;;;;;;;;4.00;3.00;;;;;20.28;47.79;102294.75;5046696;28;45669;-74
2023/05/17 12:10:57;;;;;;;;;3.00;3.00;;;;;20.36;47.57;102301.44;5068214;27;45545;-75
2023/05/17 12:13:22;;;;;;;;;3.67;3.67;;;;;20.41;47.83;102296.59;5115929;27;45749;-78
2023/05/17 12:15:53;;;;;;;;;4.33;2.33;;;;;20.47;47.58;102301.53;5101630;27;46012;-76
2023/05/17 12:18:19;;;;;;;;;2.67;1.67;;;;;20.51;47.67;102291.38;5096044;27;45487;-78
2023/05/17 12:20:59;;;;;;;;;3.00;3.00;;;;;20.48;47.27;102276.28;5109805;27;45472;-73
2023/05/17 12:23:45;;;;;;;;;4.67;4.67;;;;;20.59;47.24;102278.22;5108443;27;45558;-77
2023/05/17 12:26:15;;;;;;;;;5.33;3.33;;;;;20.67;47.50;102283.91;5088919;27;47324;-75
2023/05/17 12:28:43;;;;;;;;;3.67;3.67;;;;;20.70;46.97;102280.13;5090079;27;45428;-74
2023/05/17 12:31:16;;;;;;;;;3.00;3.00;;;;;20.74;47.27;102287.03;5116684;27;45489;-77
2023/05/17 12:33:42;;;;;;;;;3.00;3.00;;;;;20.77;46.95;102273.28;5087804;27;45781;-73
2023/05/17 12:36:10;;;;;;;;;2.33;2.33;;;;;20.80;47.34;102272.19;5094188;27;45987;-74
2023/05/17 12:38:38;;;;;;;;;5.00;3.33;;;;;20.81;46.78;102263.16;5101631;27;45403;-74
2023/05/17 12:41:05;;;;;;;;;2.00;2.00;;;;;20.81;46.96;102265.84;5108951;27;45519;-74
2023/05/17 12:43:36;;;;;;;;;1.67;1.33;;;;;20.84;47.06;102279.09;5098154;27;45454;-75
2023/05/17 12:46:10;;;;;;;;;2.00;2.00;;;;;20.85;46.80;102280.81;5101466;27;46334;-74
2023/05/17 12:48:38;;;;;;;;;2.33;2.33;;;;;20.82;46.76;102272.09;5082679;27;45504;-73
2023/05/17 12:51:09;;;;;;;;;1.33;1.33;;;;;20.89;47.16;102273.41;5083173;27;45481;-82
2023/05/17 12:53:39;;;;;;;;;2.00;2.00;;;;;20.88;47.02;102275.22;5093726;27;45599;-72
2023/05/17 12:56:05;;;;;;;;;2.00;2.00;;;;;20.89;46.75;102270.72;5091159;27;45653;-77
2023/05/17 12:58:30;;;;;;;;;3.00;3.00;;;;;20.87;47.07;102265.41;5086762;27;45485;-74
2023/05/17 13:01:01;;;;;;;;;5.33;2.33;;;;;20.92;46.94;102274.03;5095177;27;45667;-75
2023/05/17 13:03:26;;;;;;;;;6.00;6.00;;;;;20.85;46.83;102253.00;5091897;27;45708;-75
2023/05/17 13:06:03;;;;;;;;;3.67;3.67;;;;;20.89;46.69;102258.06;5083143;27;45752;-76
2023/05/17 13:08:28;;;;;;;;;3.00;3.00;;;;;20.92;46.75;102260.53;5086135;27;45662;-75
2023/05/17 13:11:07;;;;;;;;;3.00;3.00;;;;;20.97;46.58;102265.59;5092678;27;45383;-77
2023/05/17 13:13:33;;;;;;;;;2.67;2.67;;;;;20.96;46.79;102263.03;5080310;27;45446;-72
2023/05/17 13:15:58;;;;;;;;;3.00;2.00;;;;;20.99;47.09;102273.56;5073582;27;45872;-75
2023/05/17 13:18:24;;;;;;;;;3.00;3.00;;;;;20.98;46.60;102253.84;5082397;27;49064;-74
2023/05/17 13:20:50;;;;;;;;;2.00;2.00;;;;;20.95;46.44;102259.44;5086915;27;45410;-74
2023/05/17 13:23:15;;;;;;;;;4.00;3.00;;;;;20.97;46.82;102270.13;5073989;27;45534;-75
2023/05/17 13:25:41;;;;;;;;;3.00;3.00;;;;;20.98;46.49;102270.03;5078643;27;45888;-76
2023/05/17 13:28:06;;;;;;;;;2.00;2.00;;;;;21.00;46.57;102269.88;5088745;27;45468;-74
2023/05/17 14:15:42;;;;;;;;;3.33;3.33;;;;;18.93;50.82;102245.44;5113002;27;46206;-72
2023/05/17 14:18:08;;;;;;;;;3.00;2.00;;;;;19.06;51.12;102237.47;5098705;27;45695;-72
2023/05/17 14:20:33;;;;;;;;;4.67;3.33;;;;;19.20;51.10;102233.84;5105568;27;45787;-73
2023/05/17 14:22:59;;;;;;;;;9.67;4.33;;;;;19.35;50.80;102218.50;5110244;27;45472;-73
2023/05/17 14:25:24;;;;;;;;;4.67;4.67;;;;;19.58;51.16;102226.81;5108108;27;47011;-74
2023/05/17 14:27:52;;;;;;;;;4.00;4.00;;;;;19.74;51.40;102226.59;5110122;27;45684;-72
2023/05/17 14:30:18;;;;;;;;;3.33;3.00;;;;;19.90;51.22;102222.81;5099086;27;45800;-71
2023/05/17 14:32:43;;;;;;;;;3.67;3.00;;;;;20.04;51.52;102238.06;5104593;27;45637;-71
2023/05/17 14:35:09;;;;;;;;;3.67;3.67;;;;;20.18;51.51;102233.53;5109787;27;45535;-71
2023/05/17 14:37:34;;;;;;;;;4.00;3.00;;;;;20.31;51.20;102230.81;5099215;27;45482;-72
2023/05/17 14:40:00;;;;;;;;;4.33;3.00;;;;;20.39;50.83;102210.41;5105987;27;45800;-71
2023/05/17 14:42:26;;;;;;;;;5.00;3.00;;;;;20.51;51.20;102227.50;5109797;27;45701;-71
2023/05/17 14:44:51;;;;;;;;;3.67;2.67;;;;;20.62;50.82;102229.44;5109288;27;46874;-72
2023/05/17 14:47:17;;;;;;;;;4.00;3.00;;;;;20.71;50.57;102227.88;5110231;27;45740;-71
2023/05/17 14:49:42;;;;;;;;;4.33;3.00;;;;;20.78;50.21;102225.59;5107922;27;45393;-73
2023/05/17 14:52:08;;;;;;;;;4.33;4.00;;;;;20.88;50.63;102220.41;5106126;27;45456;-72
2023/05/17 14:54:34;;;;;;;;;3.67;3.67;;;;;20.93;50.17;102223.63;5104581;27;45412;-72
2023/05/17 14:57:00;;;;;;;;;4.33;3.00;;;;;21.01;50.62;102228.44;5110131;27;45351;-71
2023/05/17 14:59:26;;;;;;;;;4.00;2.00;;;;;21.08;50.74;102207.25;5107597;27;45406;-72
2023/05/17 15:01:51;;;;;;;;;1.67;1.67;;;;;21.15;50.35;102219.28;5106733;27;45593;-72
2023/05/17 15:04:17;;;;;;;;;3.00;3.00;;;;;21.19;50.39;102216.25;5108540;27;45523;-71
2023/05/17 15:06:44;;;;;;;;;3.00;3.00;;;;;21.26;50.28;102210.38;5102921;27;45721;-74
2023/05/17 15:09:11;;;;;;;;;3.67;3.00;;;;;21.27;50.15;102209.38;5106196;27;45425;-74
2023/05/17 15:11:38;;;;;;;;;2.67;2.33;;;;;21.32;50.32;102194.56;5109907;27;45604;-75
2023/05/17 15:14:05;;;;;;;;;3.00;2.00;;;;;21.39;50.29;102202.19;5102824;27;46536;-73
2023/05/17 15:16:30;;;;;;;;;1.67;1.00;;;;;21.43;49.34;102193.75;5098518;27;45791;-72
2023/05/17 15:18:56;;;;;;;;;4.00;2.00;;;;;21.43;47.34;102188.34;5109136;27;45750;-71
2023/05/17 15:21:21;;;;;;;;;2.33;2.33;;;;;21.41;47.29;102195.69;5109465;27;45414;-72
2023/05/17 15:23:49;;;;;;;;;4.00;3.00;;;;;21.35;46.87;102179.97;5108831;27;45476;-71
2023/05/17 15:26:15;;;;;;;;;3.00;3.00;;;;;21.32;46.87;102186.47;5105292;27;45424;-72
2023/05/17 15:28:41;;;;;;;;;4.00;4.00;;;;;21.31;46.95;102175.78;5092156;27;45557;-72
2023/05/17 15:31:09;;;;;;;;;3.00;3.00;;;;;21.30;47.12;102172.19;5095694;27;45395;-71
2023/05/17 15:33:38;;;;;;;;;3.00;3.00;;;;;21.30;47.25;102183.00;5094993;27;47276;-71
2023/05/17 15:36:06;;;;;;;;;3.00;3.00;;;;;21.29;46.73;102175.03;5086961;27;45778;-72
2023/05/17 15:38:31;;;;;;;;;2.67;2.00;;;;;21.27;47.06;102185.97;5079938;27;45377;-72
2023/05/17 15:41:02;;;;;;;;;2.00;2.00;;;;;21.25;46.82;102169.00;5094957;27;45477;-72
2023/05/17 15:43:28;;;;;;;;;3.00;3.00;;;;;21.24;46.79;102177.22;5094179;27;45649;-72
2023/05/17 15:45:53;;;;;;;;;2.00;2.00;;;;;21.21;46.80;102169.38;5094167;27;45950;-72
2023/05/17 15:48:19;;;;;;;;;5.00;2.00;;;;;21.23;46.55;102170.09;5093840;27;45651;-71
2023/05/17 15:50:44;;;;;;;;;2.00;2.00;;;;;21.22;47.13;102173.78;5095719;27;45510;-71
2023/05/17 15:53:09;;;;;;;;;2.00;2.00;;;;;21.21;46.63;102175.63;5094288;27;49251;-70
2023/05/17 15:55:35;;;;;;;;;2.33;2.33;;;;;21.13;46.39;102156.47;5098280;27;45436;-71
2023/05/17 15:58:00;;;;;;;;;2.67;2.67;;;;;21.18;46.89;102171.31;5093142;27;45517;-71
2023/05/17 16:00:26;;;;;;;;;2.00;1.67;;;;;21.18;46.85;102170.47;5093680;27;50348;-71
2023/05/17 16:02:51;;;;;;;;;3.00;3.00;;;;;21.15;46.92;102155.38;5094986;27;45389;-71
2023/05/17 16:05:17;;;;;;;;;3.67;2.67;;;;;21.14;46.63;102156.31;5082015;27;52679;-71
2023/05/17 16:07:42;;;;;;;;;5.00;4.00;;;;;21.17;46.63;102166.06;5083486;27;46550;-71
2023/05/17 16:10:08;;;;;;;;;3.67;2.33;;;;;21.13;46.60;102146.50;5079451;27;45414;-71
2023/05/17 16:12:33;;;;;;;;;2.33;2.00;;;;;21.16;46.99;102164.31;5094494;27;46083;-70
2023/05/17 16:14:58;;;;;;;;;3.00;3.00;;;;;21.16;46.75;102159.78;5087278;27;59812;-70
2023/05/17 16:17:24;;;;;;;;;2.33;2.33;;;;;21.15;46.71;102152.66;5093883;27;53305;-70
2023/05/17 16:19:49;;;;;;;;;3.00;2.67;;;;;21.18;46.53;102165.06;5093492;27;45366;-70
2023/05/17 16:22:15;;;;;;;;;2.00;2.00;;;;;21.16;46.35;102157.06;5094471;27;45844;-70
2023/05/17 16:24:40;;;;;;;;;3.33;2.00;;;;;21.17;46.30;102161.50;5088136;27;45382;-71
2023/05/17 16:27:06;;;;;;;;;1.00;1.00;;;;;21.15;46.47;102144.56;5085357;27;45416;-70
2023/05/17 16:29:34;;;;;;;;;2.00;2.00;;;;;21.18;46.92;102151.56;5094194;27;45479;-71
2023/05/17 16:31:59;;;;;;;;;1.00;1.00;;;;;21.19;46.47;102158.69;5093813;27;46219;-70
2023/05/17 16:34:27;;;;;;;;;4.00;3.00;;;;;21.13;46.70;102145.66;5091135;27;45378;-71
2023/05/17 16:36:52;;;;;;;;;1.00;1.00;;;;;21.13;46.71;102141.09;5079067;27;45438;-70
2023/05/17 16:39:17;;;;;;;;;2.00;2.00;;;;;21.19;46.37;102146.06;5084612;27;45342;-70
2023/05/17 16:41:43;;;;;;;;;3.00;3.00;;;;;21.21;46.26;102148.59;5094081;27;45498;-71
2023/05/17 16:44:08;;;;;;;;;2.00;2.00;;;;;21.22;46.47;102153.06;5081603;27;45457;-71
2023/05/17 16:46:33;;;;;;;;;2.33;2.33;;;;;21.19;46.52;102143.34;5086352;27;45808;-70
2023/05/17 16:48:59;;;;;;;;;1.00;1.00;;;;;21.21;46.28;102139.66;5082604;27;45322;-70
2023/05/17 16:51:24;;;;;;;;;2.00;2.00;;;;;21.21;46.25;102158.56;5093689;27;45311;-72
2023/05/17 16:53:49;;;;;;;;;3.00;3.00;;;;;21.18;45.92;102147.00;5090072;27;60270;-71
2023/05/17 16:56:14;;;;;;;;;6.00;3.00;;;;;21.18;46.51;102155.09;5092940;27;45387;-71
2023/05/17 16:58:40;;;;;;;;;2.00;2.00;;;;;21.25;46.70;102147.41;5075243;27;54712;-71
2023/05/17 17:01:05;;;;;;;;;5.00;3.33;;;;;21.26;46.91;102157.22;5090972;27;45671;-71
2023/05/17 17:03:30;;;;;;;;;4.00;2.33;;;;;21.31;47.33;102156.88;5090242;27;53170;-71
2023/05/17 17:05:56;;;;;;;;;1.33;1.33;;;;;21.35;46.99;102165.59;5092337;27;45412;-71
2023/05/17 17:08:21;;;;;;;;;3.00;3.00;;;;;21.37;47.24;102187.94;5092928;27;45470;-71
2023/05/17 17:10:46;;;;;;;;;4.33;2.00;;;;;21.39;47.36;102161.66;5093488;27;52802;-70
2023/05/17 17:13:12;;;;;;;;;1.67;1.67;;;;;21.38;47.36;102165.34;5082550;27;48734;-71
2023/05/17 17:15:37;;;;;;;;;1.00;1.00;;;;;21.44;47.57;102170.28;5099469;27;46712;-71
2023/05/17 17:18:02;;;;;;;;;4.33;4.33;;;;;21.46;47.18;102174.56;5083148;27;56189;-71
2023/05/17 17:20:27;;;;;;;;;4.00;3.33;;;;;21.49;47.28;102167.22;5076613;27;47113;-70
2023/05/17 17:22:53;;;;;;;;;3.00;3.00;;;;;21.51;47.27;102163.44;5090090;27;55177;-71
2023/05/17 17:25:18;;;;;;;;;4.00;2.00;;;;;21.51;47.67;102166.13;5092012;27;45509;-70
2023/05/17 17:27:44;;;;;;;;;3.67;3.00;;;;;21.55;47.05;102162.19;5082441;27;55060;-71
2023/05/17 17:30:10;;;;;;;;;2.67;2.67;;;;;21.48;46.08;102150.16;5086845;27;46823;-72
2023/05/17 17:32:35;;;;;;;;;4.00;4.00;;;;;21.46;45.82;102146.72;5085344;27;45515;-74
2023/05/17 17:35:01;;;;;;;;;4.33;3.00;;;;;21.56;45.28;102165.75;5084905;27;45695;-74
